This is the latest recevied weather packets stored in our database for station/object DB0SVX. If no packets are shown the sender has not sent any weather packets the latest 10 day(s).
| Time | Temp. | Humidity | Pressure | Rain* | Wind** | Luminosity | Snow |
|---|---|---|---|---|---|---|---|
| 1777623021 | 16.11° C | 34% | 1024 hPa | 0 mm | - | - | - |
| 1777622120 | 11.11° C | 43% | 1023.9 hPa | 0 mm | - | - | - |
| 1777621220 | 8.33° C | 43% | 1023.7 hPa | 0 mm | - | - | - |
| 1777620320 | 7.78° C | 44% | 1023.9 hPa | 0 mm | - | - | - |
| 1777619420 | 7.22° C | 45% | 1023.5 hPa | 0 mm | - | - | - |
| 1777618520 | 6.67° C | 46% | 1023.7 hPa | 0 mm | - | - | - |
| 1777617620 | 6.11° C | 47% | 1023.5 hPa | 0 mm | - | - | - |
| 1777616720 | 5.56° C | 48% | 1023.5 hPa | 0 mm | - | - | - |
| 1777615820 | 4.44° C | 49% | 1023.5 hPa | 0 mm | - | - | - |
| 1777614920 | 3.89° C | 49% | 1023.5 hPa | 0 mm | - | - | - |
| 1777614020 | 3.89° C | 50% | 1023 hPa | 0 mm | - | - | - |
| 1777613120 | 2.78° C | 52% | 1023.2 hPa | 0 mm | - | - | - |
| 1777612220 | 1.67° C | 54% | 1023 hPa | 0 mm | - | - | - |
| 1777611320 | 1.11° C | 54% | 1022.7 hPa | 0 mm | - | - | - |
| 1777610420 | 0° C | 54% | 1022.7 hPa | 0 mm | - | - | - |
| 1777609520 | 0° C | 54% | 1022.7 hPa | 0 mm | - | - | - |
| 1777608620 | 0° C | 54% | 1022.7 hPa | 0 mm | - | - | - |
| 1777607720 | 0° C | 54% | 1022.7 hPa | 0 mm | - | - | - |
| 1777606820 | 0° C | 52% | 1022.5 hPa | 0 mm | - | - | - |
| 1777605920 | 0.56° C | 51% | 1022.5 hPa | 0 mm | - | - | - |
| 1777605020 | 1.11° C | 50% | 1022.7 hPa | 0 mm | - | - | - |
| 1777604119 | 1.67° C | 48% | 1022.5 hPa | 0 mm | - | - | - |
| 1777603220 | 2.22° C | 48% | 1022.5 hPa | 0 mm | - | - | - |
| 1777602320 | 2.78° C | 47% | 1022.5 hPa | 0 mm | - | - | - |
| 1777601420 | 2.78° C | 47% | 1022.4 hPa | 0 mm | - | - | - |
* Rain latest hour (hover to see other rain measurements)
** Current wind speed in m/s (hover to see current wind gust speed)